Terminal Aerodrome Forecast
Issued by NWS Twin Cities, MN

Home | Current Version | Previous Version | Graphics & Text | Print | Product List | Glossary On
Versions: 1 2 3 4 5 6 7 8 9 10 11 12 13 14 15 16 17 18 19 20
000
FTUS43 KMPX 261100
TAFSTC
TAF
KSTC 261135Z 2612/2712 03007KT P6SM -SN BKN025 OVC035
      TEMPO 2612/2615 3SM -SN
     FM261500 01009KT 5SM -SN BR OVC025
     FM261800 35010KT P6SM -SN OVC015
     FM262100 33010KT P6SM SCT018 BKN040
     FM270000 33008KT P6SM SCT050=

USA.gov is the U.S. government's official web portal to all federal, state and local government web resources and services.